createdAt,value
2018-11-13T00:00:36.828Z,57.50
2018-11-13T00:01:36.818Z,59.20
2018-11-13T00:02:36.838Z,59.50
2018-11-13T00:03:36.820Z,60.00
2018-11-13T00:04:36.784Z,59.00
2018-11-13T00:05:36.772Z,60.70
2018-11-13T00:06:36.762Z,58.20
2018-11-13T00:07:36.750Z,58.30
2018-11-13T00:08:36.740Z,60.70
2018-11-13T00:09:36.742Z,63.70
2018-11-13T00:10:36.718Z,62.90
2018-11-13T00:11:36.850Z,63.40
2018-11-13T00:12:36.697Z,61.00
2018-11-13T00:13:36.685Z,68.30
2018-11-13T00:14:36.672Z,68.10
2018-11-13T00:15:36.663Z,63.80
2018-11-13T00:16:36.656Z,64.40
2018-11-13T00:17:36.655Z,66.20
2018-11-13T00:18:36.638Z,63.20
2018-11-13T00:19:36.620Z,58.60
2018-11-13T00:20:36.609Z,59.40
2018-11-13T00:21:36.597Z,60.20
2018-11-13T00:22:36.609Z,59.90
2018-11-13T00:23:36.576Z,61.70
2018-11-13T00:24:36.564Z,61.10
2018-11-13T00:25:36.555Z,59.80
2018-11-13T00:26:36.543Z,61.10
2018-11-13T00:27:36.758Z,61.90
2018-11-13T00:28:36.536Z,57.00
2018-11-13T00:29:36.846Z,59.80
2018-11-13T00:30:36.499Z,59.30
2018-11-13T00:31:36.488Z,63.90
2018-11-13T00:32:36.477Z,60.30
2018-11-13T00:33:36.503Z,62.40
2018-11-13T00:34:36.453Z,61.10
2018-11-13T00:35:36.446Z,63.50
2018-11-13T00:36:36.433Z,59.60
2018-11-13T00:37:36.423Z,64.70
2018-11-13T00:38:36.417Z,63.80
2018-11-13T00:39:36.446Z,65.40
2018-11-13T00:40:36.392Z,64.70
2018-11-13T00:41:36.377Z,62.80
2018-11-13T00:42:36.368Z,63.50
2018-11-13T00:43:36.358Z,61.90
2018-11-13T00:44:36.345Z,63.10
2018-11-13T00:45:36.449Z,62.60
2018-11-13T00:46:36.324Z,66.00
2018-11-13T00:47:36.312Z,61.30
2018-11-13T00:48:36.316Z,64.70
2018-11-13T00:49:36.331Z,66.40
2018-11-13T00:50:36.336Z,72.80
2018-11-13T00:51:36.269Z,71.90
2018-11-13T00:52:36.258Z,64.00
2018-11-13T00:53:36.246Z,65.50
2018-11-13T00:54:36.236Z,62.50
2018-11-13T00:55:36.240Z,71.70
2018-11-13T00:56:36.215Z,70.50
2018-11-13T00:57:36.203Z,66.00
2018-11-13T00:58:36.192Z,64.00
2018-11-13T00:59:36.195Z,65.50
2018-11-13T01:00:36.226Z,63.00
2018-11-13T01:01:36.160Z,62.90
2018-11-13T01:02:36.149Z,64.50
2018-11-13T01:03:36.139Z,65.30
2018-11-13T01:04:36.129Z,65.70
2018-11-13T01:05:36.150Z,64.40
2018-11-13T01:06:36.105Z,63.60
2018-11-13T01:07:36.168Z,63.70
2018-11-13T01:08:36.082Z,59.30
2018-11-13T01:09:36.074Z,64.00
2018-11-13T01:10:36.074Z,62.60
2018-11-13T01:11:36.050Z,65.90
2018-11-13T01:12:36.039Z,62.60
2018-11-13T01:13:36.027Z,60.30
2018-11-13T01:14:36.019Z,61.80
2018-11-13T01:15:36.020Z,63.80
2018-11-13T01:16:35.995Z,62.20
2018-11-13T01:17:36.000Z,63.90
2018-11-13T01:18:35.975Z,62.80
2018-11-13T01:19:35.964Z,63.60
2018-11-13T01:20:35.952Z,61.60
2018-11-13T01:21:35.943Z,56.60
2018-11-13T01:22:36.321Z,54.90
2018-11-13T01:23:35.920Z,61.50
2018-11-13T01:24:35.910Z,65.40
2018-11-13T01:25:35.898Z,62.70
2018-11-13T01:26:35.890Z,68.80
2018-11-13T01:27:35.892Z,71.80
2018-11-13T01:28:35.864Z,76.80
2018-11-13T01:29:35.853Z,72.80
2018-11-13T01:30:35.841Z,76.80
2018-11-13T01:31:35.831Z,77.80
2018-11-13T01:32:35.838Z,75.90
2018-11-13T01:33:35.809Z,76.60
2018-11-13T01:34:35.797Z,75.30
2018-11-13T01:35:35.789Z,79.50
2018-11-13T01:36:35.777Z,78.40
2018-11-13T01:37:35.783Z,78.80
2018-11-13T01:38:35.775Z,76.10
2018-11-13T01:39:35.744Z,84.50
2018-11-13T01:40:35.737Z,89.10
2018-11-13T01:41:35.782Z,86.20
2018-11-13T01:42:35.715Z,90.60
2018-11-13T01:43:35.715Z,94.60
2018-11-13T01:44:35.689Z,94.90
2018-11-13T01:45:35.677Z,96.50
2018-11-13T01:46:35.666Z,88.80
2018-11-13T01:47:35.654Z,92.10
2018-11-13T01:48:35.658Z,90.60
2018-11-13T01:49:35.683Z,95.00
2018-11-13T01:50:35.622Z,99.90
2018-11-13T01:51:35.612Z,101.50
2018-11-13T01:52:35.803Z,108.80
2018-11-13T01:53:35.635Z,106.50
2018-11-13T01:54:35.577Z,102.60
2018-11-13T01:55:35.564Z,100.10
2018-11-13T01:56:35.556Z,97.80
2018-11-13T01:57:35.560Z,101.00
2018-11-13T01:58:35.535Z,97.00
2018-11-13T01:59:35.527Z,98.50
2018-11-13T02:00:35.529Z,100.00
2018-11-13T02:01:35.501Z,105.00
2018-11-13T02:02:35.492Z,95.50
2018-11-13T02:03:35.479Z,90.40
2018-11-13T02:04:35.511Z,94.90
2018-11-13T02:05:35.458Z,93.30
2018-11-13T02:06:35.451Z,90.60
2018-11-13T02:07:35.437Z,93.60
2018-11-13T02:08:35.426Z,96.60
2018-11-13T02:09:35.412Z,96.00
2018-11-13T02:10:35.416Z,98.50
2018-11-13T02:11:35.392Z,98.10
2018-11-13T02:12:35.380Z,90.40
2018-11-13T02:13:35.370Z,93.40
2018-11-13T02:14:35.369Z,88.90
2018-11-13T02:15:35.347Z,92.90
2018-11-13T02:16:35.351Z,89.30
2018-11-13T02:17:35.324Z,86.20
2018-11-13T02:18:35.318Z,85.20
2018-11-13T02:19:35.316Z,80.50
2018-11-13T02:20:35.297Z,80.00
2018-11-13T02:21:35.316Z,84.70
2018-11-13T02:22:35.270Z,79.90
2018-11-13T02:23:35.260Z,81.70
2018-11-13T02:24:35.246Z,84.70
2018-11-13T02:25:35.236Z,88.90
2018-11-13T02:26:35.226Z,88.00
2018-11-13T02:27:35.253Z,83.70
2018-11-13T02:28:35.203Z,86.90
2018-11-13T02:29:35.192Z,87.90
2018-11-13T02:30:35.181Z,92.00
2018-11-13T02:31:35.172Z,96.70
2018-11-13T02:32:35.161Z,91.50
2018-11-13T02:33:35.166Z,97.50
2018-11-13T02:34:35.137Z,92.10
2018-11-13T02:35:35.150Z,91.50
2018-11-13T02:36:35.116Z,97.90
2018-11-13T02:37:35.121Z,100.40
2018-11-13T02:38:35.107Z,101.40
2018-11-13T02:39:35.083Z,100.60
2018-11-13T02:40:35.071Z,91.80
2018-11-13T02:41:35.060Z,100.00
2018-11-13T02:42:35.049Z,88.80
2018-11-13T02:43:35.052Z,94.40
2018-11-13T02:44:35.027Z,92.90
2018-11-13T02:45:35.033Z,91.00
2018-11-13T02:46:35.004Z,91.40
2018-11-13T02:47:34.994Z,86.70
2018-11-13T02:48:34.987Z,83.00
2018-11-13T02:49:34.987Z,90.40
2018-11-13T02:50:34.964Z,94.60
2018-11-13T02:51:34.953Z,101.80
2018-11-13T02:52:34.938Z,96.80
2018-11-13T02:53:34.927Z,99.20
2018-11-13T02:54:34.948Z,100.50
2018-11-13T02:55:34.905Z,97.70
2018-11-13T02:56:34.896Z,106.60
2018-11-13T02:57:34.883Z,103.10
2018-11-13T02:58:34.871Z,95.20
2018-11-13T02:59:34.859Z,99.40
2018-11-13T03:00:34.870Z,98.30
2018-11-13T03:01:34.839Z,98.50
2018-11-13T03:02:34.828Z,91.60
2018-11-13T03:03:34.817Z,91.30
2018-11-13T03:04:34.805Z,94.40
2018-11-13T03:05:34.808Z,87.10
2018-11-13T03:06:34.782Z,89.20
2018-11-13T03:07:34.775Z,86.80
2018-11-13T03:08:34.765Z,88.20
2018-11-13T03:09:34.750Z,82.70
2018-11-13T03:10:34.765Z,90.00
2018-11-13T03:11:34.726Z,88.80
2018-11-13T03:12:34.717Z,83.50
2018-11-13T03:13:34.716Z,91.90
2018-11-13T03:14:34.694Z,84.90
2018-11-13T03:15:34.684Z,84.70
2018-11-13T03:16:34.688Z,83.60
2018-11-13T03:17:34.665Z,83.80
2018-11-13T03:18:34.652Z,79.00
2018-11-13T03:19:34.654Z,82.00
2018-11-13T03:20:34.628Z,80.40
2018-11-13T03:21:34.632Z,80.90
2018-11-13T03:22:34.608Z,80.80
2018-11-13T03:23:34.595Z,78.70
2018-11-13T03:24:34.583Z,82.90
2018-11-13T03:25:34.594Z,79.10
2018-11-13T03:26:34.562Z,79.60
2018-11-13T03:27:34.551Z,81.20
2018-11-13T03:28:34.542Z,81.00
2018-11-13T03:29:34.528Z,87.40
2018-11-13T03:30:34.532Z,89.70
2018-11-13T03:31:34.602Z,88.60
2018-11-13T03:32:34.496Z,85.00
2018-11-13T03:33:34.519Z,88.50
2018-11-13T03:34:34.475Z,103.70
2018-11-13T03:35:34.468Z,92.70
2018-11-13T03:36:34.452Z,93.60
2018-11-13T03:37:34.442Z,96.20
2018-11-13T03:38:34.429Z,105.90
2018-11-13T03:39:34.430Z,105.80
2018-11-13T03:40:34.407Z,95.30
2018-11-13T03:41:34.400Z,90.10
2018-11-13T03:42:34.510Z,93.60
2018-11-13T03:43:34.390Z,94.80
2018-11-13T03:44:34.366Z,88.30
2018-11-13T03:45:34.353Z,79.80
2018-11-13T03:46:34.342Z,89.50
2018-11-13T03:47:34.332Z,79.40
2018-11-13T03:48:34.347Z,79.20
2018-11-13T03:49:34.307Z,79.10
2018-11-13T03:50:34.298Z,82.80
2018-11-13T03:51:34.287Z,90.80
2018-11-13T03:52:34.276Z,85.20
2018-11-13T03:53:34.271Z,85.10
2018-11-13T03:54:34.263Z,80.40
2018-11-13T03:55:34.241Z,81.70
2018-11-13T03:56:34.242Z,86.60
2018-11-13T03:57:34.219Z,83.20
2018-11-13T03:58:34.210Z,75.90
2018-11-13T03:59:34.202Z,76.40
2018-11-13T04:00:34.197Z,76.60
2018-11-13T04:01:34.177Z,75.80
2018-11-13T04:02:34.167Z,81.20
2018-11-13T04:03:34.151Z,85.00
2018-11-13T04:04:34.143Z,79.90
2018-11-13T04:05:34.152Z,80.70
2018-11-13T04:06:34.121Z,83.70
2018-11-13T04:07:34.130Z,84.70
2018-11-13T04:08:34.097Z,82.80
2018-11-13T04:09:34.086Z,86.10
2018-11-13T04:10:34.100Z,89.20
2018-11-13T04:11:34.065Z,73.70
2018-11-13T04:12:34.052Z,78.80
2018-11-13T04:13:34.041Z,73.20
2018-11-13T04:14:34.033Z,79.30
2018-11-13T04:15:34.047Z,76.30
2018-11-13T04:16:34.008Z,73.90
2018-11-13T04:17:33.998Z,72.40
2018-11-13T04:18:33.987Z,73.80
2018-11-13T04:19:33.974Z,80.10
2018-11-13T04:20:33.965Z,80.60
2018-11-13T04:21:33.985Z,79.90
2018-11-13T04:22:33.942Z,79.60
2018-11-13T04:23:33.934Z,74.70
2018-11-13T04:24:33.919Z,85.20
2018-11-13T04:25:33.961Z,83.60
2018-11-13T04:26:33.901Z,86.20
2018-11-13T04:27:33.904Z,93.30
2018-11-13T04:28:33.875Z,94.70
2018-11-13T04:29:33.863Z,90.80
2018-11-13T04:30:33.920Z,94.40
2018-11-13T04:31:33.844Z,89.00
2018-11-13T04:32:33.831Z,85.00
2018-11-13T04:33:33.820Z,90.50
2018-11-13T04:34:33.812Z,94.20
2018-11-13T04:35:33.809Z,96.20
2018-11-13T04:36:33.786Z,97.20
2018-11-13T04:37:33.775Z,103.40
2018-11-13T04:38:33.766Z,100.70
2018-11-13T04:39:33.755Z,102.10
2018-11-13T04:40:33.754Z,97.80
2018-11-13T04:41:33.733Z,99.20
2018-11-13T04:42:33.751Z,97.70
2018-11-13T04:43:33.713Z,92.70
2018-11-13T04:44:33.702Z,98.90
2018-11-13T04:45:33.688Z,102.50
2018-11-13T04:46:33.680Z,92.10
2018-11-13T04:47:33.664Z,94.50
2018-11-13T04:48:33.671Z,102.20
2018-11-13T04:49:33.643Z,92.80
2018-11-13T04:50:33.667Z,94.80
2018-11-13T04:51:33.696Z,89.40
2018-11-13T04:52:33.613Z,96.50
2018-11-13T04:53:33.598Z,93.40
2018-11-13T04:54:33.588Z,96.60
2018-11-13T04:55:33.577Z,94.10
2018-11-13T04:56:33.581Z,90.60
2018-11-13T04:57:33.557Z,94.50
2018-11-13T04:58:33.558Z,92.70
2018-11-13T04:59:33.533Z,93.80
2018-11-13T05:00:33.527Z,96.70
2018-11-13T05:01:33.513Z,96.00
2018-11-13T05:02:33.499Z,103.10
2018-11-13T05:03:33.502Z,84.50
2018-11-13T05:04:33.477Z,89.20
2018-11-13T05:05:33.468Z,88.00
2018-11-13T05:06:33.458Z,84.90
2018-11-13T05:07:33.444Z,81.80
2018-11-13T05:08:33.445Z,82.10
2018-11-13T05:09:33.423Z,81.60
2018-11-13T05:10:33.411Z,86.00
2018-11-13T05:11:33.401Z,76.70
2018-11-13T05:12:33.404Z,79.50
2018-11-13T05:13:33.423Z,90.70
2018-11-13T05:14:33.367Z,88.80
2018-11-13T05:15:33.359Z,85.20
2018-11-13T05:16:33.349Z,84.60
2018-11-13T05:17:33.333Z,80.30
2018-11-13T05:18:33.322Z,84.30
2018-11-13T05:19:33.326Z,82.00
2018-11-13T05:20:33.302Z,83.80
2018-11-13T05:21:33.305Z,80.90
2018-11-13T05:22:33.281Z,75.10
2018-11-13T05:23:33.267Z,82.10
2018-11-13T05:24:33.283Z,83.80
2018-11-13T05:25:33.245Z,77.10
2018-11-13T05:26:33.232Z,80.00
2018-11-13T05:27:33.222Z,77.60
2018-11-13T05:28:33.213Z,80.50
2018-11-13T05:29:33.204Z,77.40
2018-11-13T05:30:33.205Z,79.60
2018-11-13T05:31:33.177Z,80.80
2018-11-13T05:32:33.168Z,81.70
2018-11-13T05:33:33.156Z,81.70
2018-11-13T05:34:33.156Z,79.00
2018-11-13T05:35:33.135Z,80.40
2018-11-13T05:36:33.124Z,83.30
2018-11-13T05:37:33.114Z,80.90
2018-11-13T05:38:33.113Z,86.90
2018-11-13T05:39:33.093Z,93.80
2018-11-13T05:40:33.082Z,92.10
2018-11-13T05:41:33.082Z,91.20
2018-11-13T05:42:33.057Z,90.20
2018-11-13T05:43:33.086Z,84.60
2018-11-13T05:44:33.034Z,93.10
2018-11-13T05:45:33.024Z,91.50
2018-11-13T05:46:33.028Z,91.50
2018-11-13T05:47:33.001Z,90.40
2018-11-13T05:48:32.991Z,90.30
2018-11-13T05:49:32.990Z,101.70
2018-11-13T05:50:32.972Z,94.30
2018-11-13T05:51:32.968Z,99.50
2018-11-13T05:52:32.948Z,103.90
2018-11-13T05:53:32.935Z,111.00
2018-11-13T05:54:32.924Z,109.80
2018-11-13T05:55:32.941Z,103.10
2018-11-13T05:56:32.902Z,99.30
2018-11-13T05:57:32.892Z,92.90
2018-11-13T05:58:32.880Z,92.50
2018-11-13T05:59:32.873Z,94.20
2018-11-13T06:00:32.859Z,88.70
2018-11-13T06:01:32.864Z,87.00
2018-11-13T06:02:32.854Z,82.40
2018-11-13T06:03:32.827Z,76.70
2018-11-13T06:04:32.812Z,86.10
2018-11-13T06:05:32.816Z,75.30
2018-11-13T06:06:32.795Z,83.30
2018-11-13T06:07:32.791Z,79.90
2018-11-13T06:08:32.887Z,86.40
2018-11-13T06:09:32.766Z,78.00
2018-11-13T06:10:32.751Z,79.30
2018-11-13T06:11:32.737Z,81.70
2018-11-13T06:12:32.743Z,74.60
2018-11-13T06:13:32.729Z,79.10
2018-11-13T06:14:32.704Z,75.00
2018-11-13T06:15:32.691Z,78.10
2018-11-13T06:16:32.690Z,75.20
2018-11-13T06:17:32.691Z,79.70
2018-11-13T06:18:32.677Z,74.60
2018-11-13T06:19:32.658Z,72.60
2018-11-13T06:20:32.639Z,79.40
2018-11-13T06:21:32.625Z,73.10
2018-11-13T06:22:32.643Z,79.40
2018-11-13T06:23:32.604Z,74.80
2018-11-13T06:24:32.592Z,74.00
2018-11-13T06:25:32.583Z,71.30
2018-11-13T06:26:32.574Z,72.10
2018-11-13T06:27:32.562Z,75.40
2018-11-13T06:28:32.558Z,70.30
2018-11-13T06:29:32.556Z,71.20
2018-11-13T06:30:32.525Z,66.80
2018-11-13T06:31:32.514Z,69.90
2018-11-13T06:32:32.533Z,72.00
2018-11-13T06:33:32.491Z,66.10
2018-11-13T06:34:32.481Z,66.80
2018-11-13T06:35:32.472Z,64.90
2018-11-13T06:36:32.459Z,65.30
2018-11-13T06:37:32.451Z,60.40
2018-11-13T06:38:32.463Z,63.50
2018-11-13T06:39:32.425Z,64.50
2018-11-13T06:40:32.419Z,62.10
2018-11-13T06:41:32.403Z,61.90
2018-11-13T06:42:32.391Z,59.10
2018-11-13T06:43:32.396Z,57.00
2018-11-13T06:44:32.372Z,59.40
2018-11-13T06:45:32.359Z,57.60
2018-11-13T06:46:32.346Z,52.80
2018-11-13T06:47:32.337Z,57.60
2018-11-13T06:48:32.337Z,61.30
2018-11-13T06:49:32.365Z,57.50
2018-11-13T06:50:32.304Z,61.70
2018-11-13T06:51:32.295Z,55.70
2018-11-13T06:52:32.282Z,54.70
2018-11-13T06:53:32.280Z,56.60
2018-11-13T06:54:32.259Z,53.20
2018-11-13T06:55:32.247Z,52.20
2018-11-13T06:56:32.252Z,52.00
2018-11-13T06:57:32.235Z,52.50
2018-11-13T06:58:32.225Z,51.50
2018-11-13T06:59:32.208Z,49.60
2018-11-13T07:00:32.196Z,51.00
2018-11-13T07:01:32.184Z,47.60
2018-11-13T07:02:32.171Z,51.60
2018-11-13T07:03:32.197Z,48.80
2018-11-13T07:04:32.153Z,46.30
2018-11-13T07:05:32.139Z,46.40
2018-11-13T07:06:32.128Z,46.80
2018-11-13T07:07:32.117Z,47.30
2018-11-13T07:08:32.104Z,47.60
2018-11-13T07:09:32.121Z,43.40
2018-11-13T07:10:32.145Z,41.50
2018-11-13T07:11:32.071Z,44.50
2018-11-13T07:12:32.060Z,43.60
2018-11-13T07:13:32.053Z,41.00
2018-11-13T07:14:32.039Z,36.80
2018-11-13T07:15:32.040Z,36.60
2018-11-13T07:16:32.015Z,37.80
2018-11-13T07:17:32.007Z,33.80
2018-11-13T07:18:32.117Z,35.40
2018-11-13T07:19:31.985Z,32.40
2018-11-13T07:20:32.004Z,32.40
2018-11-13T07:21:31.961Z,29.50
2018-11-13T07:22:31.952Z,28.80
2018-11-13T07:23:31.941Z,27.30
2018-11-13T07:24:31.929Z,26.20
2018-11-13T07:25:31.964Z,26.30
2018-11-13T07:26:31.920Z,27.60
2018-11-13T07:27:31.963Z,28.30
2018-11-13T07:28:31.884Z,25.10
2018-11-13T07:29:31.873Z,22.10
2018-11-13T07:30:31.873Z,23.50
2018-11-13T07:31:31.881Z,23.70
2018-11-13T07:32:31.839Z,20.70
2018-11-13T07:33:31.893Z,23.70
2018-11-13T07:34:31.918Z,21.70
2018-11-13T07:35:31.809Z,22.30
2018-11-13T07:36:31.794Z,21.00
2018-11-13T07:37:31.815Z,18.30
2018-11-13T07:38:31.823Z,18.00
2018-11-13T07:39:31.763Z,17.70
2018-11-13T07:40:31.752Z,18.00
2018-11-13T07:41:31.743Z,17.10
2018-11-13T07:42:31.730Z,18.70
2018-11-13T07:43:31.796Z,20.20
2018-11-13T07:44:31.708Z,15.60
2018-11-13T07:45:31.696Z,17.20
2018-11-13T07:46:31.689Z,14.60
2018-11-13T07:47:31.855Z,16.10
2018-11-13T07:48:31.664Z,17.00
2018-11-13T07:49:31.695Z,16.50
2018-11-13T07:50:31.653Z,15.80
2018-11-13T07:51:31.631Z,16.20
2018-11-13T07:52:31.637Z,16.20
2018-11-13T07:53:31.608Z,16.60
2018-11-13T07:54:31.597Z,16.30
2018-11-13T07:55:31.587Z,16.00
2018-11-13T07:56:31.574Z,17.10
2018-11-13T07:57:31.594Z,15.40
2018-11-13T07:58:31.586Z,14.70
2018-11-13T07:59:31.542Z,15.00
2018-11-13T08:00:31.532Z,14.50
2018-11-13T08:01:31.522Z,13.90
2018-11-13T08:02:31.509Z,14.00
2018-11-13T08:03:31.584Z,13.10
2018-11-13T08:04:31.489Z,14.70
2018-11-13T08:05:31.478Z,13.60
2018-11-13T08:06:31.513Z,12.20
2018-11-13T08:07:31.454Z,14.40
2018-11-13T08:08:31.443Z,14.30
2018-11-13T08:09:31.444Z,12.10
2018-11-13T08:10:31.425Z,12.40
2018-11-13T08:11:31.442Z,12.70
2018-11-13T08:12:31.399Z,11.30
2018-11-13T08:13:31.489Z,11.20
2018-11-13T08:14:31.376Z,11.50
2018-11-13T08:15:31.397Z,12.80
2018-11-13T08:16:31.413Z,14.10
2018-11-13T08:17:31.358Z,12.40
2018-11-13T08:18:31.407Z,10.60
2018-11-13T08:19:31.337Z,12.00
2018-11-13T08:20:31.311Z,11.60
2018-11-13T08:21:31.301Z,11.90
2018-11-13T08:22:31.323Z,10.70
2018-11-13T08:23:31.278Z,11.60
2018-11-13T08:24:31.268Z,16.10
2018-11-13T08:25:31.261Z,11.30
2018-11-13T08:26:31.246Z,12.60
2018-11-13T08:27:31.236Z,10.90
2018-11-13T08:28:31.288Z,11.30
2018-11-13T08:29:31.258Z,9.30
2018-11-13T08:30:31.208Z,9.80
2018-11-13T08:31:31.280Z,10.70
2018-11-13T08:32:31.180Z,8.60
2018-11-13T08:33:31.169Z,8.10
2018-11-13T08:34:31.194Z,8.60
2018-11-13T08:35:31.195Z,8.50
2018-11-13T08:36:31.136Z,7.60
2018-11-13T08:37:31.128Z,8.10
2018-11-13T08:38:31.114Z,9.40
2018-11-13T08:39:31.103Z,7.20
2018-11-13T08:40:31.104Z,7.30
2018-11-13T08:41:31.083Z,5.00
2018-11-13T08:42:31.070Z,5.80
2018-11-13T08:43:31.059Z,5.90
2018-11-13T08:44:31.047Z,5.40
2018-11-13T08:45:31.050Z,6.60
2018-11-13T08:46:31.026Z,7.60
2018-11-13T08:47:31.016Z,7.70
2018-11-13T08:48:31.005Z,5.40
2018-11-13T08:49:30.996Z,5.70
2018-11-13T08:50:31.035Z,5.60
2018-11-13T08:51:30.983Z,4.50
2018-11-13T08:52:30.960Z,5.30
2018-11-13T08:53:30.956Z,5.30
2018-11-13T08:54:30.951Z,6.20
2018-11-13T08:55:30.940Z,5.10
2018-11-13T08:56:30.917Z,4.60
2018-11-13T08:57:30.921Z,5.30
2018-11-13T08:58:30.944Z,4.40
2018-11-13T08:59:30.970Z,8.50
2018-11-13T09:00:30.873Z,7.20
2018-11-13T09:01:30.863Z,5.20
2018-11-13T09:02:30.865Z,4.80
2018-11-13T09:03:30.842Z,5.60
2018-11-13T09:04:30.828Z,4.00
2018-11-13T09:05:30.817Z,5.10
2018-11-13T09:06:30.808Z,5.70
2018-11-13T09:07:30.811Z,5.20
2018-11-13T09:08:30.787Z,5.20
2018-11-13T09:09:30.776Z,4.90
2018-11-13T09:10:30.768Z,7.70
2018-11-13T09:11:30.763Z,6.70
2018-11-13T09:12:30.866Z,4.20
2018-11-13T09:13:30.731Z,4.50
2018-11-13T09:14:30.718Z,6.90
2018-11-13T09:15:30.708Z,5.40
2018-11-13T09:16:30.699Z,7.00
2018-11-13T09:17:30.686Z,5.00
2018-11-13T09:18:30.735Z,5.40
2018-11-13T09:19:30.859Z,4.00
2018-11-13T09:20:30.654Z,5.90
2018-11-13T09:21:30.642Z,4.00
2018-11-13T09:22:30.630Z,4.30
2018-11-13T09:23:30.621Z,5.40
2018-11-13T09:24:30.621Z,7.20
2018-11-13T09:25:30.599Z,4.00
2018-11-13T09:26:30.594Z,4.80
2018-11-13T09:27:30.574Z,5.40
2018-11-13T09:28:30.579Z,6.40
2018-11-13T09:29:30.570Z,4.90
2018-11-13T09:30:30.680Z,5.40
2018-11-13T09:31:30.631Z,6.50
2018-11-13T09:32:30.523Z,6.10
2018-11-13T09:33:30.571Z,5.30
2018-11-13T09:34:30.527Z,6.20
2018-11-13T09:35:30.488Z,7.10
2018-11-13T09:36:30.476Z,5.00
2018-11-13T09:37:30.488Z,4.90
2018-11-13T09:38:30.456Z,5.70
2018-11-13T09:39:30.445Z,8.00
2018-11-13T09:40:30.471Z,4.40
2018-11-13T09:41:30.422Z,6.40
2018-11-13T09:42:30.411Z,5.10
2018-11-13T09:43:30.401Z,4.70
2018-11-13T09:44:30.392Z,6.70
2018-11-13T09:45:30.379Z,4.70
2018-11-13T09:46:30.449Z,4.50
2018-11-13T09:47:30.378Z,7.10
2018-11-13T09:48:30.345Z,7.40
2018-11-13T09:49:30.335Z,4.40
2018-11-13T09:50:30.332Z,5.40
2018-11-13T09:51:30.314Z,6.10
2018-11-13T09:52:30.313Z,5.10
2018-11-13T09:53:30.464Z,5.30
2018-11-13T09:54:30.279Z,4.10
2018-11-13T09:55:30.314Z,3.90
2018-11-13T09:56:30.285Z,4.40
2018-11-13T09:57:30.248Z,6.40
2018-11-13T09:58:30.252Z,4.30
2018-11-13T09:59:30.225Z,7.10
2018-11-13T10:00:30.306Z,5.10
2018-11-13T10:01:30.553Z,5.00
2018-11-13T10:02:30.782Z,5.70
2018-11-13T10:03:30.886Z,4.50
2018-11-13T10:04:30.687Z,4.60
2018-11-13T10:05:30.379Z,6.50
2018-11-13T10:06:30.177Z,6.10
2018-11-13T10:07:30.136Z,5.10
2018-11-13T10:08:30.132Z,8.80
2018-11-13T10:09:30.115Z,5.60
2018-11-13T10:10:30.143Z,6.00
2018-11-13T10:11:30.091Z,5.50
2018-11-13T10:12:30.096Z,8.80
2018-11-13T10:13:30.071Z,4.30
2018-11-13T10:14:30.059Z,6.10
2018-11-13T10:15:30.049Z,5.30
2018-11-13T10:16:30.039Z,5.20
2018-11-13T10:17:30.057Z,6.00
2018-11-13T10:18:30.018Z,6.90
2018-11-13T10:19:30.005Z,4.60
2018-11-13T10:20:29.994Z,5.30
2018-11-13T10:21:29.984Z,4.60
2018-11-13T10:22:29.988Z,4.60
2018-11-13T10:23:29.961Z,6.30
2018-11-13T10:24:29.951Z,5.50
2018-11-13T10:25:29.951Z,7.40
2018-11-13T10:26:30.124Z,6.80
2018-11-13T10:27:29.919Z,5.20
2018-11-13T10:28:29.917Z,4.80
2018-11-13T10:29:29.899Z,5.00
2018-11-13T10:30:29.900Z,5.40
2018-11-13T10:31:29.875Z,6.10
2018-11-13T10:32:29.864Z,7.00
2018-11-13T10:33:29.890Z,5.70
2018-11-13T10:34:29.840Z,4.00
2018-11-13T10:35:29.830Z,7.40
2018-11-13T10:36:29.819Z,4.50
2018-11-13T10:37:29.868Z,5.30
2018-11-13T10:38:29.800Z,4.10
2018-11-13T10:39:29.817Z,6.00
2018-11-13T10:40:29.859Z,6.10
2018-11-13T10:41:29.816Z,7.40
2018-11-13T10:42:29.755Z,5.30
2018-11-13T10:43:29.752Z,6.80
2018-11-13T10:44:29.731Z,7.10
2018-11-13T10:45:29.747Z,5.50
2018-11-13T10:46:29.709Z,5.80
2018-11-13T10:47:29.697Z,6.60
2018-11-13T10:48:29.687Z,3.00
2018-11-13T10:49:29.679Z,7.20
2018-11-13T10:50:29.732Z,4.10
2018-11-13T10:51:29.668Z,4.40
2018-11-13T10:52:29.643Z,4.80
2018-11-13T10:53:29.644Z,4.60
2018-11-13T10:54:29.620Z,4.70
2018-11-13T10:55:29.623Z,6.30
2018-11-13T10:56:29.681Z,6.80
2018-11-13T10:57:29.590Z,6.00
2018-11-13T10:58:29.580Z,4.60
2018-11-13T10:59:29.567Z,8.30
2018-11-13T11:00:29.569Z,6.00
2018-11-13T11:01:29.543Z,5.70
2018-11-13T11:02:29.605Z,5.10
2018-11-13T11:03:29.521Z,5.70
2018-11-13T11:04:29.531Z,6.60
2018-11-13T11:05:29.531Z,4.00
2018-11-13T11:06:29.488Z,5.90
2018-11-13T11:07:29.477Z,6.30
2018-11-13T11:08:29.470Z,7.70
2018-11-13T11:09:29.458Z,4.90
2018-11-13T11:10:29.490Z,6.60
2018-11-13T11:11:29.533Z,5.60
2018-11-13T11:12:29.421Z,3.50
2018-11-13T11:13:29.561Z,6.40
2018-11-13T11:14:29.402Z,2.40
2018-11-13T11:15:29.389Z,5.80
2018-11-13T11:16:29.407Z,4.10
2018-11-13T11:17:29.367Z,4.20
2018-11-13T11:18:29.365Z,4.60
2018-11-13T11:19:29.436Z,4.40
2018-11-13T11:20:29.333Z,3.50
2018-11-13T11:21:29.332Z,6.50
2018-11-13T11:22:29.351Z,3.90
2018-11-13T11:23:29.415Z,4.10
2018-11-13T11:24:29.295Z,5.20
2018-11-13T11:25:29.427Z,4.80
2018-11-13T11:26:29.345Z,4.00
2018-11-13T11:27:29.256Z,6.40
2018-11-13T11:28:29.258Z,5.70
2018-11-13T11:29:29.249Z,5.30
2018-11-13T11:30:29.223Z,4.90
2018-11-13T11:31:29.211Z,3.20
2018-11-13T11:32:29.213Z,5.40
2018-11-13T11:33:29.189Z,7.30
2018-11-13T11:34:29.179Z,5.90
2018-11-13T11:35:29.168Z,4.50
2018-11-13T11:36:29.156Z,4.20
2018-11-13T11:37:29.183Z,4.10
2018-11-13T11:38:29.213Z,6.60
2018-11-13T11:39:29.122Z,3.50
2018-11-13T11:40:29.112Z,7.00
2018-11-13T11:41:29.101Z,7.40
2018-11-13T11:42:29.090Z,5.90
2018-11-13T11:43:29.120Z,6.90
2018-11-13T11:44:29.095Z,5.30
2018-11-13T11:45:29.057Z,5.20
2018-11-13T11:46:29.046Z,5.60
2018-11-13T11:47:29.035Z,4.50
2018-11-13T11:48:29.027Z,3.90
2018-11-13T11:49:29.028Z,4.70
2018-11-13T11:50:29.001Z,6.10
2018-11-13T11:51:28.995Z,6.00
2018-11-13T11:52:28.980Z,5.90
2018-11-13T11:53:29.000Z,5.60
2018-11-13T11:54:28.958Z,6.00
2018-11-13T11:55:28.949Z,4.00
2018-11-13T11:56:28.937Z,6.30
2018-11-13T11:57:28.965Z,4.30
2018-11-13T11:58:28.918Z,4.50
2018-11-13T11:59:28.923Z,5.70
2018-11-13T12:00:28.950Z,6.60
2018-11-13T12:01:28.880Z,6.90
2018-11-13T12:02:28.876Z,3.90
2018-11-13T12:03:28.858Z,8.90
2018-11-13T12:04:28.858Z,7.60
2018-11-13T12:05:28.837Z,6.30
2018-11-13T12:06:28.824Z,5.10
2018-11-13T12:07:28.814Z,6.30
2018-11-13T12:08:28.803Z,5.80
2018-11-13T12:09:28.836Z,5.10
2018-11-13T12:10:28.814Z,7.00
2018-11-13T12:11:28.772Z,4.80
2018-11-13T12:12:28.760Z,7.30
2018-11-13T12:13:28.750Z,3.60
2018-11-13T12:14:28.737Z,7.10
2018-11-13T12:15:28.727Z,5.10
2018-11-13T12:16:28.731Z,5.50
2018-11-13T12:17:28.703Z,6.60
2018-11-13T12:18:28.693Z,9.70
2018-11-13T12:19:28.733Z,5.60
2018-11-13T12:20:28.671Z,6.20
2018-11-13T12:21:28.693Z,6.60
2018-11-13T12:22:28.649Z,5.10
2018-11-13T12:23:28.637Z,6.10
2018-11-13T12:24:28.626Z,6.00
2018-11-13T12:25:28.648Z,8.80
2018-11-13T12:26:28.609Z,5.70
2018-11-13T12:27:28.594Z,7.10
2018-11-13T12:28:28.584Z,6.00
2018-11-13T12:29:28.575Z,6.30
2018-11-13T12:30:28.562Z,6.60
2018-11-13T12:31:28.565Z,6.90
2018-11-13T12:32:28.555Z,9.10
2018-11-13T12:33:28.538Z,6.20
2018-11-13T12:34:28.571Z,5.80
2018-11-13T12:35:28.524Z,6.00
2018-11-13T12:36:28.531Z,6.90
2018-11-13T12:37:28.484Z,5.90
2018-11-13T12:38:28.473Z,5.30
2018-11-13T12:39:28.462Z,7.50
2018-11-13T12:40:28.450Z,7.50
2018-11-13T12:41:28.439Z,9.00
2018-11-13T12:42:28.466Z,7.80
2018-11-13T12:43:28.418Z,8.00
2018-11-13T12:44:28.406Z,7.20
2018-11-13T12:45:28.397Z,10.30
2018-11-13T12:46:28.391Z,8.60
2018-11-13T12:47:28.373Z,5.70
2018-11-13T12:48:28.379Z,8.10
2018-11-13T12:49:28.409Z,7.60
2018-11-13T12:50:28.355Z,8.30
2018-11-13T12:51:28.343Z,7.70
2018-11-13T12:52:28.318Z,7.10
2018-11-13T12:53:28.317Z,8.30
2018-11-13T12:54:28.295Z,6.70
2018-11-13T12:55:28.348Z,4.60
2018-11-13T12:56:28.406Z,5.80
2018-11-13T12:57:28.264Z,6.60
2018-11-13T12:58:28.253Z,4.20
2018-11-13T12:59:28.242Z,7.40
2018-11-13T13:00:28.232Z,4.60